createdAt,value
2022-09-27T00:01:56.655Z,46.78
2022-09-27T00:04:24.754Z,46.73
2022-09-27T00:06:55.394Z,46.96
2022-09-27T00:09:23.472Z,47.48
2022-09-27T00:11:52.547Z,47.10
2022-09-27T00:14:20.845Z,46.85
2022-09-27T00:16:50.141Z,47.03
2022-09-27T00:19:19.323Z,46.71
2022-09-27T00:21:48.067Z,46.59
2022-09-27T00:24:18.655Z,46.58
2022-09-27T00:26:47.214Z,46.89
2022-09-27T00:29:16.471Z,47.15
2022-09-27T00:31:44.764Z,47.40
2022-09-27T00:34:15.585Z,47.18
2022-09-27T00:36:43.588Z,47.37
2022-09-27T00:39:11.606Z,47.97
2022-09-27T00:41:41.305Z,47.89
2022-09-27T00:44:48.240Z,48.11
2022-09-27T00:47:19.627Z,47.73
2022-09-27T00:49:49.529Z,47.62
2022-09-27T00:52:18.383Z,47.72
2022-09-27T00:54:48.256Z,48.00
2022-09-27T00:57:17.661Z,48.15
2022-09-27T00:59:47.011Z,47.71
2022-09-27T01:02:16.187Z,47.38
2022-09-27T01:04:44.205Z,46.95
2022-09-27T01:07:12.159Z,46.83
2022-09-27T01:09:40.258Z,46.91
2022-09-27T01:12:10.446Z,47.15
2022-09-27T01:14:44.248Z,47.12
2022-09-27T01:17:20.299Z,47.31
2022-09-27T01:20:09.027Z,48.06
2022-09-27T01:22:37.778Z,47.49
2022-09-27T01:25:29.819Z,47.37
2022-09-27T01:28:14.861Z,47.23
2022-09-27T01:30:46.601Z,47.54
2022-09-27T01:33:25.126Z,47.29
2022-09-27T01:36:10.651Z,47.64
2022-09-27T01:38:44.326Z,47.47
2022-09-27T01:41:20.179Z,47.40
2022-09-27T01:44:00.652Z,47.29
2022-09-27T01:46:37.560Z,47.19
2022-09-27T01:49:19.407Z,47.51
2022-09-27T01:51:49.434Z,47.29
2022-09-27T01:54:21.239Z,47.20
2022-09-27T01:57:08.354Z,47.18
2022-09-27T01:59:44.010Z,47.44
2022-09-27T02:02:41.378Z,47.22
2022-09-27T02:05:30.859Z,47.28
2022-09-27T02:08:06.507Z,47.34
2022-09-27T02:10:39.359Z,47.49
2022-09-27T02:13:17.071Z,47.49
2022-09-27T02:15:50.750Z,47.19
2022-09-27T02:18:42.043Z,46.43
2022-09-27T02:21:10.141Z,46.72
2022-09-27T02:23:40.293Z,46.61
2022-09-27T02:26:14.852Z,46.74
2022-09-27T02:28:44.577Z,47.09
2022-09-27T02:31:24.017Z,46.93
2022-09-27T02:33:56.599Z,47.19
2022-09-27T02:36:27.391Z,47.15
2022-09-27T02:38:55.608Z,47.16
2022-09-27T02:41:24.543Z,47.31
2022-09-27T02:43:54.499Z,47.38
2022-09-27T02:46:45.120Z,47.02
2022-09-27T02:49:22.280Z,47.39
2022-09-27T02:52:11.157Z,47.35
2022-09-27T02:54:42.297Z,47.54
2022-09-27T02:57:35.206Z,48.05
2022-09-27T03:00:32.793Z,48.13
2022-09-27T03:03:26.475Z,47.95
2022-09-27T03:06:03.810Z,47.71
2022-09-27T03:08:31.852Z,47.89
2022-09-27T03:11:00.985Z,48.20
2022-09-27T03:13:29.208Z,48.30
2022-09-27T03:16:01.820Z,48.42
2022-09-27T03:18:38.323Z,48.67
2022-09-27T03:21:26.480Z,49.47
2022-09-27T03:23:54.638Z,49.20
2022-09-27T03:26:22.865Z,48.78
2022-09-27T03:28:50.914Z,48.73
2022-09-27T03:31:19.126Z,48.40
2022-09-27T03:34:04.239Z,47.93
2022-09-27T03:36:33.702Z,48.17
2022-09-27T03:39:01.926Z,48.35
2022-09-27T03:41:31.060Z,49.04
2022-09-27T03:43:59.894Z,48.64
2022-09-27T03:46:28.252Z,49.46
2022-09-27T03:48:56.786Z,49.72
2022-09-27T03:51:24.767Z,49.90
2022-09-27T03:53:54.256Z,49.46
2022-09-27T03:56:25.056Z,49.06
2022-09-27T03:59:01.015Z,48.85
2022-09-27T04:01:30.290Z,48.55
2022-09-27T04:04:11.408Z,48.71
2022-09-27T04:06:40.095Z,49.13
2022-09-27T04:09:09.576Z,49.04
2022-09-27T04:11:56.284Z,49.09
2022-09-27T04:14:25.626Z,48.85
2022-09-27T04:17:17.415Z,49.10
2022-09-27T04:20:08.832Z,49.03
2022-09-27T04:22:40.672Z,48.85
2022-09-27T04:25:11.213Z,48.35
2022-09-27T04:27:43.291Z,48.43
2022-09-27T04:30:12.278Z,48.95
2022-09-27T04:32:58.590Z,50.31
2022-09-27T04:36:08.174Z,50.53
2022-09-27T04:38:39.996Z,50.10
2022-09-27T04:41:10.548Z,50.59
2022-09-27T04:43:41.292Z,50.47
2022-09-27T04:46:09.522Z,50.39
2022-09-27T04:48:38.307Z,50.38
2022-09-27T04:51:07.451Z,50.88
2022-09-27T04:53:35.897Z,50.73
2022-09-27T04:56:06.171Z,50.40
2022-09-27T04:58:36.560Z,50.13
2022-09-27T05:01:04.898Z,49.94
2022-09-27T05:03:44.194Z,49.76
2022-09-27T05:06:16.713Z,49.74
2022-09-27T05:08:45.994Z,50.23
2022-09-27T05:11:34.283Z,50.14
2022-09-27T05:14:21.256Z,50.10
2022-09-27T05:17:09.972Z,50.54
2022-09-27T05:20:04.016Z,50.11
2022-09-27T05:22:51.641Z,50.22
2022-09-27T05:25:19.770Z,50.36
2022-09-27T05:27:48.247Z,50.03
2022-09-27T05:30:18.128Z,50.07
2022-09-27T05:32:53.237Z,50.01
2022-09-27T05:35:27.508Z,49.46
2022-09-27T05:37:58.339Z,49.32
2022-09-27T05:40:44.678Z,48.95
2022-09-27T05:43:13.028Z,48.84
2022-09-27T05:45:43.118Z,49.29
2022-09-27T05:48:14.132Z,49.42
2022-09-27T05:50:53.189Z,49.88
2022-09-27T05:53:21.323Z,49.30
2022-09-27T05:55:49.801Z,49.74
2022-09-27T05:58:21.080Z,49.77
2022-09-27T06:01:08.009Z,49.67
2022-09-27T06:04:10.389Z,49.22
2022-09-27T06:06:38.473Z,49.70
2022-09-27T06:09:11.492Z,49.96
2022-09-27T06:11:43.038Z,50.11
2022-09-27T06:14:14.456Z,50.18
2022-09-27T06:17:01.987Z,49.69
2022-09-27T06:19:36.293Z,49.53
2022-09-27T06:22:04.550Z,49.60
2022-09-27T06:24:53.076Z,49.94
2022-09-27T06:27:26.358Z,50.01
2022-09-27T06:30:06.584Z,50.03
2022-09-27T06:32:50.349Z,50.00
2022-09-27T06:35:25.275Z,50.61
2022-09-27T06:37:53.775Z,50.40
2022-09-27T06:40:22.530Z,50.28
2022-09-27T06:43:03.339Z,50.18
2022-09-27T06:45:54.965Z,49.92
2022-09-27T06:48:34.414Z,49.88
2022-09-27T06:51:13.985Z,49.63
2022-09-27T06:53:42.826Z,49.42
2022-09-27T06:56:11.205Z,49.13
2022-09-27T06:59:15.861Z,49.56
2022-09-27T07:01:44.170Z,49.45
2022-09-27T07:04:32.943Z,49.92
2022-09-27T07:07:06.224Z,49.35
2022-09-27T07:09:41.607Z,49.04
2022-09-27T07:12:09.655Z,49.36
2022-09-27T07:14:38.195Z,49.01
2022-09-27T07:17:06.715Z,48.88
2022-09-27T07:19:40.402Z,48.57
2022-09-27T07:22:09.700Z,48.99
2022-09-27T07:24:38.131Z,49.03
2022-09-27T07:27:09.188Z,48.89
2022-09-27T07:29:38.620Z,48.37
2022-09-27T07:32:06.710Z,48.19
2022-09-27T07:34:34.995Z,47.69
2022-09-27T07:37:06.538Z,47.53
2022-09-27T07:39:39.737Z,47.67
2022-09-27T07:42:08.341Z,48.24
2022-09-27T07:44:40.255Z,48.50
2022-09-27T07:47:20.222Z,48.28
2022-09-27T07:50:10.879Z,47.75
2022-09-27T07:53:01.264Z,47.48
2022-09-27T07:55:54.070Z,47.32
2022-09-27T07:58:25.810Z,46.98
2022-09-27T08:01:16.288Z,47.01
2022-09-27T08:03:45.662Z,46.85
2022-09-27T08:06:18.007Z,46.68
2022-09-27T08:08:48.748Z,46.61
2022-09-27T08:11:21.944Z,46.50
2022-09-27T08:13:53.081Z,46.86
2022-09-27T08:16:27.126Z,47.02
2022-09-27T08:19:15.193Z,47.46
2022-09-27T08:22:02.506Z,47.34
2022-09-27T08:24:47.280Z,47.31
2022-09-27T08:27:23.852Z,47.47
2022-09-27T08:29:58.127Z,47.71
2022-09-27T08:32:26.390Z,47.60
2022-09-27T08:34:54.671Z,47.47
2022-09-27T08:37:30.200Z,48.12
2022-09-27T08:40:00.006Z,47.95
2022-09-27T08:42:35.455Z,47.76
2022-09-27T08:45:08.373Z,48.20
2022-09-27T08:47:38.611Z,48.02
2022-09-27T08:50:19.404Z,48.33
2022-09-27T08:52:54.461Z,48.50
2022-09-27T08:55:29.687Z,48.35
2022-09-27T08:58:02.124Z,47.74
2022-09-27T09:00:35.695Z,47.62
2022-09-27T09:03:05.147Z,47.82
2022-09-27T09:05:36.598Z,47.61
2022-09-27T09:08:20.422Z,47.52
2022-09-27T09:11:11.346Z,47.20
2022-09-27T09:14:04.227Z,46.88
2022-09-27T09:16:42.514Z,47.35
2022-09-27T09:19:31.810Z,47.29
2022-09-27T09:22:32.131Z,47.21
2022-09-27T09:25:11.203Z,47.14
2022-09-27T09:27:43.789Z,47.12
2022-09-27T09:30:22.683Z,47.02
2022-09-27T09:33:17.687Z,47.06
2022-09-27T09:35:49.551Z,46.96
2022-09-27T09:38:22.394Z,47.08
2022-09-27T09:40:53.250Z,47.48
2022-09-27T09:43:27.714Z,47.61
2022-09-27T09:45:58.973Z,47.31
2022-09-27T09:48:31.947Z,46.98
2022-09-27T09:51:02.584Z,46.89
2022-09-27T09:53:38.153Z,46.81
2022-09-27T09:56:13.386Z,46.83
2022-09-27T09:58:45.215Z,46.71
2022-09-27T10:01:23.727Z,46.62
2022-09-27T10:03:52.046Z,46.72
2022-09-27T10:06:20.696Z,45.94
2022-09-27T10:08:50.124Z,45.53
2022-09-27T10:11:32.863Z,45.23
2022-09-27T10:14:31.735Z,45.40
2022-09-27T10:17:05.641Z,45.19
2022-09-27T10:19:38.020Z,45.01
2022-09-27T10:22:13.556Z,45.20
2022-09-27T10:24:56.194Z,44.74
2022-09-27T10:27:45.976Z,45.12
2022-09-27T10:30:25.983Z,45.28
2022-09-27T10:32:56.900Z,45.18
2022-09-27T10:35:43.685Z,44.52
2022-09-27T10:38:23.308Z,44.72
2022-09-27T10:40:56.779Z,44.58
2022-09-27T10:43:33.058Z,44.74
2022-09-27T10:46:23.734Z,44.95
2022-09-27T10:49:12.976Z,45.33
2022-09-27T10:51:44.132Z,45.50
2022-09-27T10:54:21.513Z,45.36
2022-09-27T10:57:02.487Z,45.30
2022-09-27T10:59:34.184Z,45.22
2022-09-27T11:02:08.352Z,45.50
2022-09-27T11:04:42.671Z,47.31
2022-09-27T11:07:17.046Z,48.00
2022-09-27T11:09:56.148Z,48.11
2022-09-27T11:12:27.415Z,48.89
2022-09-27T11:15:00.642Z,49.17
2022-09-27T11:17:35.916Z,49.23
2022-09-27T11:20:18.249Z,49.86
2022-09-27T11:23:21.452Z,49.68
2022-09-27T11:26:08.534Z,49.80
2022-09-27T11:28:43.484Z,49.40
2022-09-27T11:31:35.664Z,48.53
2022-09-27T11:34:32.968Z,48.43
2022-09-27T11:37:16.884Z,49.06
2022-09-27T11:39:58.409Z,48.98
2022-09-27T11:42:40.185Z,47.92
2022-09-27T11:45:56.584Z,47.70
2022-09-27T11:48:39.902Z,48.10
2022-09-27T11:51:28.020Z,47.95
2022-09-27T11:54:07.781Z,49.41
2022-09-27T11:56:44.725Z,49.82
2022-09-27T11:59:42.932Z,50.02
2022-09-27T12:02:22.454Z,49.80
2022-09-27T12:05:11.130Z,50.20
2022-09-27T12:07:49.646Z,50.58
2022-09-27T12:10:18.683Z,50.60
2022-09-27T12:12:51.706Z,49.80
2022-09-27T12:15:26.917Z,48.77
2022-09-27T12:17:58.941Z,48.87
2022-09-27T12:20:37.886Z,49.43
2022-09-27T12:23:14.237Z,49.93
2022-09-27T12:26:04.036Z,50.38
2022-09-27T12:28:41.640Z,51.09
2022-09-27T12:31:28.873Z,51.16
2022-09-27T12:34:05.497Z,51.35
2022-09-27T12:36:38.321Z,51.30
2022-09-27T12:39:14.904Z,51.59
2022-09-27T12:41:51.824Z,52.15
2022-09-27T12:44:35.985Z,52.33
2022-09-27T12:47:07.075Z,52.72
2022-09-27T12:49:43.837Z,52.55
2022-09-27T12:52:14.385Z,52.63
2022-09-27T12:55:03.625Z,52.66
2022-09-27T12:57:57.099Z,52.74
2022-09-27T13:00:36.561Z,52.43
2022-09-27T13:06:36.976Z,52.71
2022-09-27T13:09:56.795Z,52.77
2022-09-27T13:12:50.937Z,52.52
2022-09-27T13:15:25.663Z,51.36
2022-09-27T13:18:09.412Z,50.92
2022-09-27T13:20:50.239Z,50.96
2022-09-27T13:23:54.719Z,51.30
2022-09-27T13:26:52.621Z,51.22
2022-09-27T13:29:41.908Z,51.56
2022-09-27T13:32:29.332Z,51.70
2022-09-27T13:35:21.161Z,52.66
2022-09-27T13:38:26.529Z,53.27
2022-09-27T13:41:22.515Z,53.57
2022-09-27T13:44:13.131Z,54.15
2022-09-27T13:47:13.060Z,54.71
2022-09-27T13:50:22.543Z,54.79
2022-09-27T13:53:17.065Z,55.53
2022-09-27T13:55:51.971Z,55.50
2022-09-27T13:59:01.237Z,55.25
2022-09-27T14:02:27.029Z,55.60
2022-09-27T14:05:09.318Z,55.78
2022-09-27T14:07:49.390Z,56.44
2022-09-27T14:13:27.040Z,57.15
2022-09-27T14:16:21.722Z,57.22
2022-09-27T14:19:19.896Z,57.30
2022-09-27T14:22:23.968Z,57.22
2022-09-27T14:25:29.904Z,57.33
2022-09-27T14:28:27.222Z,57.55
2022-09-27T14:31:38.123Z,57.13
2022-09-27T14:34:59.514Z,57.26
2022-09-27T14:37:43.314Z,57.77
2022-09-27T14:40:28.149Z,57.70
2022-09-27T14:43:09.361Z,59.13
2022-09-27T14:45:42.681Z,58.81
2022-09-27T14:48:24.918Z,58.88
2022-09-27T14:51:31.496Z,59.29
2022-09-27T14:54:11.918Z,59.04
2022-09-27T14:57:09.872Z,59.62
2022-09-27T15:00:36.472Z,60.03
2022-09-27T15:03:20.715Z,60.40
2022-09-27T15:05:59.736Z,60.09
2022-09-27T15:08:59.809Z,60.32
2022-09-27T15:11:35.355Z,61.02
2022-09-27T15:14:22.163Z,61.08
2022-09-27T15:17:01.864Z,60.86
2022-09-27T15:19:46.276Z,60.46
2022-09-27T15:25:37.135Z,60.92
2022-09-27T15:28:08.768Z,61.30
2022-09-27T15:30:39.853Z,60.95
2022-09-27T15:33:33.047Z,61.33
2022-09-27T15:36:10.989Z,61.91
2022-09-27T15:38:50.777Z,61.92
2022-09-27T15:42:13.298Z,62.88
2022-09-27T15:45:01.349Z,62.92
2022-09-27T15:48:09.771Z,62.66
2022-09-27T15:50:52.396Z,62.75
2022-09-27T15:53:57.705Z,62.91
2022-09-27T15:56:33.846Z,63.02
2022-09-27T15:59:29.403Z,63.30
2022-09-27T16:02:08.592Z,62.87
2022-09-27T16:04:44.960Z,62.91
2022-09-27T16:07:16.516Z,62.84
2022-09-27T16:09:52.275Z,63.02
2022-09-27T16:12:24.656Z,62.82
2022-09-27T16:14:57.149Z,62.83
2022-09-27T16:17:28.162Z,62.47
2022-09-27T16:20:07.573Z,62.21
2022-09-27T16:22:49.795Z,62.25
2022-09-27T16:25:29.595Z,62.34
2022-09-27T16:28:04.332Z,62.48
2022-09-27T16:30:34.564Z,62.06
2022-09-27T16:33:10.408Z,62.14
2022-09-27T16:35:44.771Z,61.84
2022-09-27T16:38:20.007Z,61.64
2022-09-27T16:40:51.601Z,61.59
2022-09-27T16:43:23.441Z,61.67
2022-09-27T16:46:12.329Z,61.64
2022-09-27T16:48:54.019Z,61.84
2022-09-27T17:04:29.060Z,61.58
2022-09-27T17:07:09.032Z,61.32
2022-09-27T17:09:46.663Z,61.40
2022-09-27T17:12:23.726Z,60.59
2022-09-27T17:14:56.074Z,59.69
2022-09-27T17:17:25.871Z,59.72
2022-09-27T17:19:55.310Z,59.41
2022-09-27T17:22:23.403Z,59.20
2022-09-27T17:24:53.021Z,58.26
2022-09-27T17:27:25.738Z,57.23
2022-09-27T17:29:54.045Z,56.91
2022-09-27T17:32:24.237Z,56.48
2022-09-27T17:34:52.448Z,56.31
2022-09-27T17:37:24.821Z,56.55
2022-09-27T17:39:52.879Z,56.51
2022-09-27T17:42:20.955Z,57.00
2022-09-27T17:44:48.995Z,57.25
2022-09-27T17:47:34.661Z,57.52
2022-09-27T17:50:19.901Z,58.01
2022-09-27T17:52:49.585Z,58.06
2022-09-27T17:55:17.782Z,58.15
2022-09-27T17:57:47.952Z,58.08
2022-09-27T18:00:16.482Z,58.08
2022-09-27T18:02:45.059Z,58.04
2022-09-27T18:05:13.231Z,58.25
2022-09-27T18:07:43.730Z,58.11
2022-09-27T18:10:13.309Z,58.94
2022-09-27T18:12:43.139Z,59.51
2022-09-27T18:15:11.303Z,59.55
2022-09-27T18:17:39.321Z,59.74
2022-09-27T18:20:08.151Z,60.02
2022-09-27T18:22:36.553Z,59.93
2022-09-27T18:25:05.475Z,60.09
2022-09-27T18:27:34.880Z,60.04
2022-09-27T18:30:03.463Z,60.03
2022-09-27T18:32:31.674Z,60.21
2022-09-27T18:34:59.757Z,60.15
2022-09-27T18:37:28.668Z,60.05
2022-09-27T18:39:56.712Z,59.79
2022-09-27T18:42:26.074Z,60.01
2022-09-27T18:44:55.514Z,60.17
2022-09-27T18:47:24.204Z,60.19
2022-09-27T18:49:52.304Z,59.82
2022-09-27T18:52:20.579Z,60.05
2022-09-27T18:54:49.239Z,60.42
2022-09-27T18:57:17.315Z,60.28
2022-09-27T18:59:48.153Z,60.65
2022-09-27T19:02:17.692Z,60.36
2022-09-27T19:04:45.753Z,59.43
2022-09-27T19:07:13.854Z,59.21
2022-09-27T19:09:41.862Z,58.82
2022-09-27T19:12:10.434Z,57.87
2022-09-27T19:14:39.866Z,57.73
2022-09-27T19:17:07.920Z,57.66
2022-09-27T19:19:37.375Z,57.44
2022-09-27T19:22:05.610Z,57.34
2022-09-27T19:24:33.652Z,57.41
2022-09-27T19:27:01.691Z,57.25
2022-09-27T19:29:29.770Z,56.79
2022-09-27T19:31:57.866Z,57.22
2022-09-27T19:34:26.106Z,56.87
2022-09-27T19:36:57.887Z,57.00
2022-09-27T19:39:26.113Z,56.80
2022-09-27T19:41:56.563Z,56.62
2022-09-27T19:44:26.059Z,56.88
2022-09-27T19:46:54.137Z,57.01
2022-09-27T19:49:22.189Z,56.91
2022-09-27T19:51:52.094Z,57.39
2022-09-27T19:54:22.441Z,57.30
2022-09-27T19:56:50.683Z,57.15
2022-09-27T19:59:18.868Z,57.21
2022-09-27T20:01:47.059Z,57.20
2022-09-27T20:04:15.214Z,57.46
2022-09-27T20:06:43.396Z,57.28
2022-09-27T20:09:11.431Z,57.09
2022-09-27T20:11:42.115Z,57.13
2022-09-27T20:14:10.375Z,57.20
2022-09-27T20:16:41.395Z,57.16
2022-09-27T20:19:10.437Z,57.16
2022-09-27T20:21:38.713Z,56.93
2022-09-27T20:24:07.120Z,56.86
2022-09-27T20:26:36.571Z,56.91
2022-09-27T20:29:06.879Z,56.94
2022-09-27T20:31:37.107Z,56.98
2022-09-27T20:34:05.282Z,56.74
2022-09-27T20:36:34.109Z,56.52
2022-09-27T20:39:03.539Z,56.64
2022-09-27T20:41:32.512Z,56.52
2022-09-27T20:44:03.364Z,56.71
2022-09-27T20:46:32.986Z,56.65
2022-09-27T20:49:03.558Z,56.34
2022-09-27T20:51:33.344Z,56.52
2022-09-27T20:54:01.430Z,56.44
2022-09-27T20:56:30.458Z,56.43
2022-09-27T20:58:59.427Z,56.32
2022-09-27T21:01:28.240Z,56.33
2022-09-27T21:03:58.411Z,56.22
2022-09-27T21:06:27.306Z,56.27
2022-09-27T21:08:55.426Z,56.07
2022-09-27T21:11:23.807Z,56.39
2022-09-27T21:13:52.481Z,56.13
2022-09-27T21:16:22.366Z,56.27
2022-09-27T21:18:51.261Z,56.30
2022-09-27T21:21:20.777Z,56.09
2022-09-27T21:23:49.157Z,56.04
2022-09-27T21:26:18.162Z,56.03
2022-09-27T21:28:46.829Z,55.89
2022-09-27T21:31:20.116Z,56.02
2022-09-27T21:33:50.412Z,55.99
2022-09-27T21:36:18.466Z,55.92
2022-09-27T21:38:47.947Z,55.63
2022-09-27T21:41:16.502Z,55.49
2022-09-27T21:43:45.339Z,55.60
2022-09-27T21:46:14.125Z,55.21
2022-09-27T21:48:43.602Z,55.15
2022-09-27T21:51:13.037Z,54.99
2022-09-27T21:53:41.807Z,54.54
2022-09-27T21:56:11.767Z,54.70
2022-09-27T21:58:40.608Z,54.91
2022-09-27T22:01:09.720Z,54.94
2022-09-27T22:03:37.991Z,54.90
2022-09-27T22:06:06.723Z,54.79
2022-09-27T22:08:34.743Z,55.00
2022-09-27T22:11:02.751Z,55.05
2022-09-27T22:13:32.622Z,55.18
2022-09-27T22:16:04.014Z,55.01
2022-09-27T22:18:34.812Z,54.98
2022-09-27T22:21:04.074Z,54.92
2022-09-27T22:23:32.192Z,54.93
2022-09-27T22:26:00.349Z,54.84
2022-09-27T22:28:28.379Z,54.77
2022-09-27T22:30:57.786Z,54.97
2022-09-27T22:33:25.835Z,55.13
2022-09-27T22:35:53.922Z,54.97
2022-09-27T22:38:21.990Z,54.90
2022-09-27T22:40:55.114Z,54.45
2022-09-27T22:43:23.334Z,54.20
2022-09-27T22:45:51.462Z,54.16
2022-09-27T22:48:20.921Z,54.05
2022-09-27T22:50:48.944Z,54.11
2022-09-27T22:53:19.375Z,53.84
2022-09-27T22:56:01.859Z,53.79
2022-09-27T22:58:32.113Z,53.75
2022-09-27T23:01:00.322Z,54.09
2022-09-27T23:03:30.175Z,53.96
2022-09-27T23:06:03.095Z,54.07
2022-09-27T23:08:35.279Z,54.02
2022-09-27T23:11:04.552Z,54.16
2022-09-27T23:13:33.511Z,53.69
2022-09-27T23:16:02.837Z,53.94
2022-09-27T23:18:33.291Z,53.92
2022-09-27T23:21:03.599Z,53.96
2022-09-27T23:23:31.982Z,53.81
2022-09-27T23:26:00.995Z,53.98
2022-09-27T23:28:29.167Z,53.83
2022-09-27T23:30:57.331Z,53.59
2022-09-27T23:33:25.413Z,53.68
2022-09-27T23:35:54.835Z,53.75
2022-09-27T23:38:23.022Z,53.44
2022-09-27T23:40:51.203Z,53.28
2022-09-27T23:43:19.438Z,53.46
2022-09-27T23:45:47.457Z,53.29
2022-09-27T23:48:15.501Z,53.25
2022-09-27T23:50:44.231Z,53.38
2022-09-27T23:53:13.686Z,52.98
2022-09-27T23:55:41.738Z,53.12
2022-09-27T23:58:10.624Z,53.05
